Time;durP1;ratioP1;P1;durP2;ratioP2;P2;SDS_P1;SDS_P2;PMS_P1;PMS_P2;Temp;Humidity;BMP_temperature;BMP_pressure;BME280_temperature;BME280_humidity;BME280_pressure;Samples;Min_cycle;Max_cycle;Signal;HPM_P1;HPM_P2
2022/05/07 00:01:28;;;;;;;8.45;6.05;;;;;;;12.32;91.91;100810.94;5035691;28;20029;-73
2022/05/07 00:03:53;;;;;;;8.05;6.05;;;;;;;12.27;92.38;100807.50;5035383;28;20498;-73
2022/05/07 00:06:19;;;;;;;8.35;6.30;;;;;;;12.24;92.50;100818.34;5035389;28;20025;-74
2022/05/07 00:08:44;;;;;;;9.25;6.00;;;;;;;12.26;91.91;100808.44;5035291;28;20018;-73
2022/05/07 00:11:10;;;;;;;7.45;6.10;;;;;;;12.21;92.52;100813.06;5035226;28;20097;-73
2022/05/07 00:13:35;;;;;;;9.27;5.85;;;;;;;12.21;92.15;100813.06;5035240;28;20031;-74
2022/05/07 00:18:44;;;;;;;9.32;6.35;;;;;;;12.18;92.61;100809.56;5035345;28;20437;-74
2022/05/07 00:21:09;;;;;;;11.27;6.18;;;;;;;12.11;93.06;100807.91;5035005;28;20483;-73
2022/05/07 00:23:35;;;;;;;8.93;5.97;;;;;;;12.09;93.69;100809.75;5035008;28;20048;-74
2022/05/07 00:26:00;;;;;;;10.73;6.38;;;;;;;12.06;93.44;100809.88;5033613;28;20036;-73
2022/05/07 00:28:25;;;;;;;8.05;5.82;;;;;;;11.96;94.27;100807.44;5035190;28;20430;-73
2022/05/07 00:30:51;;;;;;;9.93;6.30;;;;;;;11.91;95.14;100803.13;5034920;28;20487;-74
2022/05/07 00:33:16;;;;;;;10.23;6.53;;;;;;;11.84;95.88;100807.78;5033568;28;20017;-73
2022/05/07 00:35:41;;;;;;;8.68;5.93;;;;;;;11.83;95.83;100806.00;5033394;28;20029;-74
2022/05/07 00:38:07;;;;;;;9.38;6.35;;;;;;;11.82;96.05;100804.25;5034761;28;20549;-73
2022/05/07 00:40:32;;;;;;;7.40;5.25;;;;;;;11.84;95.74;100802.41;5034790;28;20021;-74
2022/05/07 00:42:57;;;;;;;8.10;6.10;;;;;;;11.89;95.34;100799.63;5034512;28;20025;-73
2022/05/07 00:45:22;;;;;;;9.82;5.93;;;;;;;11.83;95.91;100800.66;5034592;28;20025;-74
2022/05/07 00:47:48;;;;;;;7.00;5.40;;;;;;;11.85;95.66;100798.84;5034754;28;20537;-73
2022/05/07 00:52:57;;;;;;;9.45;6.07;;;;;;;11.81;96.14;100798.03;5034514;28;20029;-74
2022/05/07 00:55:24;;;;;;;8.02;5.78;;;;;;;11.81;96.16;100797.16;5049788;28;20025;-74
2022/05/07 00:57:49;;;;;;;7.97;5.53;;;;;;;11.81;95.97;100795.34;5033059;28;20021;-73
2022/05/07 01:00:14;;;;;;;7.07;5.40;;;;;;;11.81;96.17;100797.16;5048323;22;20045;-78
2022/05/07 01:02:41;;;;;;;8.50;5.97;;;;;;;11.71;96.69;100780.47;5036284;28;20033;-78
2022/05/07 01:05:07;;;;;;;7.30;5.47;;;;;;;11.71;96.50;100776.00;5035493;28;20032;-78
2022/05/07 01:07:36;;;;;;;7.63;5.75;;;;;;;11.70;96.77;100778.72;5035538;28;20021;-78
2022/05/07 01:10:03;;;;;;;11.60;6.07;;;;;;;11.71;96.74;100776.00;5034379;28;20020;-78
2022/05/07 01:12:29;;;;;;;9.98;6.15;;;;;;;11.75;96.35;100776.78;5035173;28;20029;-78
2022/05/07 01:14:58;;;;;;;8.77;5.30;;;;;;;11.74;95.92;100775.03;5036212;28;20032;-77
2022/05/07 01:17:24;;;;;;;9.70;6.10;;;;;;;11.73;95.99;100774.16;5035267;28;20022;-77
2022/05/07 01:19:53;;;;;;;9.05;6.07;;;;;;;11.72;96.12;100777.78;5036256;28;20032;-77
2022/05/07 01:22:20;;;;;;;7.53;6.10;;;;;;;11.73;95.82;100776.84;5036454;28;20112;-78
2022/05/07 01:24:45;;;;;;;8.60;6.03;;;;;;;11.72;95.61;100774.22;5037037;28;20029;-78
2022/05/07 01:27:11;;;;;;;9.50;6.28;;;;;;;11.69;95.91;100783.19;5036777;28;20386;-77
2022/05/07 01:29:36;;;;;;;8.32;5.95;;;;;;;11.66;96.41;100772.56;5036563;28;20014;-78
2022/05/07 01:32:02;;;;;;;11.15;5.82;;;;;;;11.68;96.27;100772.53;5037142;28;20355;-78
2022/05/07 01:34:27;;;;;;;8.82;6.07;;;;;;;11.60;97.41;100768.25;5037201;28;20025;-78
2022/05/07 01:36:52;;;;;;;11.13;6.25;;;;;;;11.43;99.34;100776.72;5035102;28;20026;-78
2022/05/07 01:39:17;;;;;;;9.55;6.20;;;;;;;11.45;99.32;100766.88;5034407;28;20032;-79
2022/05/07 01:41:43;;;;;;;9.15;6.13;;;;;;;11.40;99.75;100764.31;5035504;28;20032;-78
2022/05/07 01:44:08;;;;;;;9.23;5.90;;;;;;;11.42;99.47;100766.06;5035339;28;20017;-79
2022/05/07 01:49:17;;;;;;;7.72;5.45;;;;;;;11.55;98.07;100758.59;5035965;28;20055;-78
2022/05/07 01:51:42;;;;;;;11.90;6.55;;;;;;;11.48;98.47;100752.53;5035665;28;20100;-78
2022/05/07 01:54:08;;;;;;;9.13;5.93;;;;;;;11.47;98.60;100759.69;5035612;28;20075;-77
2022/05/07 01:56:33;;;;;;;9.88;6.35;;;;;;;11.46;98.42;100760.63;5035509;28;20367;-77
2022/05/07 01:58:59;;;;;;;8.85;6.05;;;;;;;11.46;98.77;100760.63;5035470;28;20083;-77
2022/05/07 02:01:25;;;;;;;8.55;5.80;;;;;;;11.45;99.16;100761.53;5036477;28;20029;-78
2022/05/07 02:03:51;;;;;;;7.60;5.32;;;;;;;11.45;98.73;100753.50;5035962;28;20474;-78
2022/05/07 02:06:16;;;;;;;10.70;6.25;;;;;;;11.41;99.26;100759.84;5036178;28;20041;-78
2022/05/07 02:08:42;;;;;;;10.35;5.85;;;;;;;11.41;99.34;100751.84;5036087;28;20031;-78
2022/05/07 02:11:08;;;;;;;12.10;6.43;;;;;;;11.39;99.69;100759.03;5036234;28;20021;-78
2022/05/07 02:13:33;;;;;;;11.35;7.15;;;;;;;11.38;99.83;100746.56;5034917;28;20017;-78
2022/05/07 02:15:58;;;;;;;14.30;6.78;;;;;;;11.38;99.72;100751.91;5033429;28;20064;-78
2022/05/07 02:18:24;;;;;;;10.93;6.45;;;;;;;11.37;99.77;100750.13;5033712;28;20051;-78
2022/05/07 02:20:49;;;;;;;11.35;6.40;;;;;;;11.36;99.49;100753.75;5034508;28;20030;-78
2022/05/07 02:23:17;;;;;;;10.90;6.88;;;;;;;11.33;100.00;100760.06;5034651;28;20064;-78
2022/05/07 02:25:43;;;;;;;11.45;6.40;;;;;;;11.34;99.75;100763.63;5034387;28;20025;-78
2022/05/07 02:28:08;;;;;;;12.40;7.20;;;;;;;11.29;100.00;100756.56;5034086;28;20049;-78
2022/05/07 02:30:33;;;;;;;10.65;7.00;;;;;;;11.23;100.00;100763.88;5034586;28;20452;-78
2022/05/07 02:32:58;;;;;;;9.75;7.30;;;;;;;11.17;100.00;100755.09;5034904;28;20021;-77
2022/05/07 02:35:25;;;;;;;12.43;7.57;;;;;;;11.06;100.00;100758.03;5035453;28;20042;-77
2022/05/07 02:37:50;;;;;;;11.02;7.10;;;;;;;10.96;100.00;100756.50;5035132;28;20028;-78
2022/05/07 02:40:15;;;;;;;10.90;7.18;;;;;;;10.99;100.00;100761.75;5035890;28;20021;-78
2022/05/07 02:42:41;;;;;;;11.70;7.25;;;;;;;10.99;100.00;100760.88;5040029;28;20470;-78
2022/05/07 02:45:08;;;;;;;14.93;7.65;;;;;;;10.97;100.00;100760.94;5039694;28;20101;-78
2022/05/07 02:47:34;;;;;;;10.13;6.95;;;;;;;10.90;100.00;100762.00;5039296;28;20486;-78
2022/05/07 02:50:00;;;;;;;11.02;6.90;;;;;;;10.83;100.00;100762.13;5039680;28;20026;-78
2022/05/07 02:52:25;;;;;;;13.15;7.45;;;;;;;10.73;100.00;100758.81;5038691;28;20036;-78
2022/05/07 02:54:51;;;;;;;11.20;7.47;;;;;;;10.68;100.00;100759.81;5038760;28;20022;-78
2022/05/07 02:57:16;;;;;;;10.77;7.45;;;;;;;10.60;100.00;100751.97;5036905;28;20112;-78
2022/05/07 02:59:42;;;;;;;12.15;8.10;;;;;;;10.56;100.00;100755.63;5038151;28;20048;-78
2022/05/07 03:02:07;;;;;;;10.32;7.32;;;;;;;10.48;100.00;100755.78;5038307;28;20060;-78
2022/05/07 03:04:33;;;;;;;11.13;7.82;;;;;;;10.41;100.00;100757.69;5037914;28;20030;-78
2022/05/07 03:06:59;;;;;;;10.48;7.97;;;;;;;10.33;100.00;100752.53;5036183;28;20401;-78
2022/05/07 03:09:24;;;;;;;12.02;7.78;;;;;;;10.29;100.00;100756.16;5037301;28;20104;-77
2022/05/07 03:11:49;;;;;;;11.57;7.95;;;;;;;10.24;100.00;100756.28;5037912;28;20124;-77
2022/05/07 03:14:15;;;;;;;13.20;7.97;;;;;;;10.14;100.00;100757.38;5038662;28;20052;-77
2022/05/07 03:16:40;;;;;;;13.45;7.80;;;;;;;10.08;100.00;100741.47;5039335;28;20029;-78
2022/05/07 03:19:06;;;;;;;12.63;8.45;;;;;;;9.97;100.00;100747.06;5039100;28;20497;-77
2022/05/07 03:21:31;;;;;;;12.07;8.70;;;;;;;9.86;100.00;100753.47;5039804;28;20029;-77
2022/05/07 03:23:57;;;;;;;11.95;8.82;;;;;;;9.72;100.00;100751.94;5037894;28;20049;-77
2022/05/07 03:26:22;;;;;;;12.60;8.98;;;;;;;9.65;100.00;100744.97;5038102;28;20025;-78
2022/05/07 03:28:48;;;;;;;13.65;8.55;;;;;;;9.62;100.00;100747.69;5037515;28;20119;-78
2022/05/07 03:31:13;;;;;;;13.45;8.70;;;;;;;9.56;100.00;100753.16;5037406;28;20071;-78
2022/05/07 03:33:39;;;;;;;12.27;8.70;;;;;;;9.54;100.00;100746.94;5037167;28;20104;-78
2022/05/07 03:36:05;;;;;;;14.43;9.10;;;;;;;9.54;100.00;100755.84;5036981;28;20022;-78
2022/05/07 03:38:30;;;;;;;13.82;8.30;;;;;;;9.53;100.00;100750.53;5037060;28;20061;-78
2022/05/07 03:40:56;;;;;;;13.13;8.93;;;;;;;9.54;100.00;100752.28;5037256;28;20063;-78
2022/05/07 03:43:21;;;;;;;16.17;9.23;;;;;;;9.53;100.00;100751.44;5035945;28;20029;-78
2022/05/07 03:45:46;;;;;;;13.02;8.63;;;;;;;9.54;100.00;100749.63;5036909;28;20025;-78
2022/05/07 03:48:11;;;;;;;13.65;8.80;;;;;;;9.54;100.00;100752.28;5036910;28;20029;-78
2022/05/07 03:50:37;;;;;;;14.85;8.80;;;;;;;9.57;100.00;100758.44;5037698;28;20025;-77
2022/05/07 03:55:46;;;;;;;17.17;10.07;;;;;;;9.55;100.00;100762.06;5038602;28;20072;-78
2022/05/07 03:58:15;;;;;;;14.00;10.07;;;;;;;9.51;100.00;100766.53;5036866;28;20403;-78
2022/05/07 04:00:42;;;;;;;15.88;10.02;;;;;;;9.50;100.00;100767.47;5036834;28;20017;-77
2022/05/07 04:03:08;;;;;;;14.55;9.40;;;;;;;9.52;100.00;100764.75;5037363;28;20036;-78
2022/05/07 04:05:33;;;;;;;14.45;9.43;;;;;;;9.53;100.00;100771.88;5036546;28;20025;-78
2022/05/07 04:07:58;;;;;;;16.10;10.05;;;;;;;9.45;100.00;100770.22;5036883;28;20114;-78
2022/05/07 04:10:24;;;;;;;16.05;10.20;;;;;;;9.24;100.00;100767.03;5037687;28;20028;-78
2022/05/07 04:12:51;;;;;;;15.05;10.15;;;;;;;9.18;100.00;100777.75;5038563;28;20101;-78
2022/05/07 04:15:17;;;;;;;14.48;9.60;;;;;;;9.18;100.00;100775.09;5038328;28;20036;-78
2022/05/07 04:17:42;;;;;;;13.88;10.23;;;;;;;9.17;100.00;100773.38;5036993;28;20021;-78
2022/05/07 04:20:09;;;;;;;15.25;10.18;;;;;;;9.19;100.00;100774.22;5038672;28;20025;-78
2022/05/07 04:22:35;;;;;;;16.25;10.57;;;;;;;9.08;100.00;100779.69;5036484;28;20035;-78
2022/05/07 04:25:01;;;;;;;16.60;10.77;;;;;;;9.18;100.00;100776.88;5036686;28;20021;-77
2022/05/07 04:27:26;;;;;;;14.50;10.45;;;;;;;9.19;100.00;100779.53;5035774;28;20137;-78
2022/05/07 04:29:51;;;;;;;16.52;12.13;;;;;;;9.04;100.00;100786.00;5037216;28;20100;-77
2022/05/07 04:32:17;;;;;;;15.27;11.13;;;;;;;8.77;100.00;100786.38;5036804;28;20551;-77
2022/05/07 04:34:42;;;;;;;18.13;12.35;;;;;;;8.70;100.00;100782.94;5037875;28;20022;-77
2022/05/07 04:37:07;;;;;;;16.77;11.35;;;;;;;8.68;100.00;100786.53;5038304;28;20026;-78
2022/05/07 04:39:34;;;;;;;16.58;11.70;;;;;;;8.61;100.00;100785.72;5038875;28;20017;-78
2022/05/07 04:42:03;;;;;;;16.13;11.43;;;;;;;8.72;100.00;100785.56;5035567;28;20232;-78
2022/05/07 04:44:28;;;;;;;13.40;10.77;;;;;;;8.88;100.00;100780.00;5036924;28;20108;-78
2022/05/07 04:46:54;;;;;;;15.38;12.02;;;;;;;8.96;100.00;100783.44;5037321;28;20053;-78
2022/05/07 04:49:19;;;;;;;15.90;11.45;;;;;;;9.07;100.00;100779.75;5036116;28;20067;-78
2022/05/07 04:51:46;;;;;;;16.85;11.00;;;;;;;9.13;100.00;100780.50;5036230;28;20124;-78
2022/05/07 04:54:12;;;;;;;15.23;11.07;;;;;;;9.22;100.00;100784.81;5036533;28;20025;-78
2022/05/07 04:56:37;;;;;;;14.82;11.02;;;;;;;9.24;100.00;100787.44;5036076;28;20455;-78
2022/05/07 04:59:02;;;;;;;15.80;11.52;;;;;;;9.28;100.00;100789.16;5034884;28;20026;-78
2022/05/07 05:01:28;;;;;;;17.60;11.95;;;;;;;9.35;100.00;100792.63;5036220;28;20029;-78
2022/05/07 05:03:53;;;;;;;14.75;10.77;;;;;;;9.43;100.00;100792.47;5034318;28;20552;-78
2022/05/07 05:06:18;;;;;;;18.08;11.63;;;;;;;9.49;100.00;100792.34;5035793;28;20025;-78
2022/05/07 05:08:43;;;;;;;16.25;11.82;;;;;;;9.55;100.00;100791.38;5037006;28;20471;-78
2022/05/07 05:11:09;;;;;;;17.83;12.73;;;;;;;9.62;100.00;100795.69;5037875;28;20022;-78
2022/05/07 05:13:34;;;;;;;19.77;13.02;;;;;;;9.63;100.00;100794.78;5035365;28;20442;-77
2022/05/07 05:16:00;;;;;;;20.00;14.88;;;;;;;9.65;100.00;100790.31;5034549;28;20024;-78
2022/05/07 05:18:25;;;;;;;20.08;13.02;;;;;;;9.76;100.00;100797.25;5035810;28;20048;-78
2022/05/07 05:20:50;;;;;;;18.77;13.30;;;;;;;9.83;100.00;100801.53;5037442;28;20025;-78
2022/05/07 05:23:15;;;;;;;19.02;12.80;;;;;;;9.89;100.00;100796.09;5036671;28;20036;-78
2022/05/07 05:25:43;;;;;;;18.60;12.50;;;;;;;9.98;100.00;100799.47;5037293;28;20029;-78
2022/05/07 05:28:11;;;;;;;18.98;13.02;;;;;;;10.06;100.00;100797.56;5037109;28;20040;-78
2022/05/07 05:30:37;;;;;;;17.30;13.02;;;;;;;10.13;100.00;100801.84;5035131;28;20028;-78
2022/05/07 05:33:02;;;;;;;19.55;13.43;;;;;;;10.22;100.00;100803.47;5036607;28;20021;-78
2022/05/07 05:35:27;;;;;;;19.60;13.10;;;;;;;10.26;100.00;100812.28;5034512;28;20543;-78
2022/05/07 05:37:54;;;;;;;18.58;12.02;;;;;;;10.33;100.00;100811.25;5035931;28;20470;-80
2022/05/07 05:40:20;;;;;;;20.38;12.90;;;;;;;10.44;100.00;100812.81;5034560;28;20025;-77
2022/05/07 05:42:45;;;;;;;19.60;13.13;;;;;;;10.53;100.00;100818.00;5038903;28;20121;-77
2022/05/07 05:45:11;;;;;;;17.85;12.85;;;;;;;10.60;100.00;100819.63;5035727;28;20028;-77
2022/05/07 05:47:36;;;;;;;17.95;13.18;;;;;;;10.68;100.00;100813.22;5034371;28;20402;-77
2022/05/07 05:50:01;;;;;;;23.38;13.77;;;;;;;10.73;100.00;100819.34;5036926;28;20475;-77
2022/05/07 05:52:27;;;;;;;21.17;13.88;;;;;;;10.73;100.00;100814.00;5036029;28;20397;-77
2022/05/07 05:54:53;;;;;;;20.88;13.80;;;;;;;10.80;100.00;100814.75;5037213;28;20071;-78
2022/05/07 05:57:18;;;;;;;18.92;13.73;;;;;;;10.86;100.00;100819.06;5035367;28;20029;-78
2022/05/07 05:59:43;;;;;;;21.23;13.30;;;;;;;10.89;100.00;100816.34;5034941;28;20471;-78
2022/05/07 06:02:09;;;;;;;18.75;13.90;;;;;;;10.95;100.00;100818.88;5034927;28;20028;-78
2022/05/07 06:04:34;;;;;;;20.13;14.18;;;;;;;10.99;100.00;100819.66;5034919;28;20033;-78
2022/05/07 06:07:00;;;;;;;16.75;12.95;;;;;;;11.05;100.00;100820.44;5034951;28;20033;-78
2022/05/07 06:09:28;;;;;;;22.50;14.15;;;;;;;11.12;100.00;100823.81;5034928;28;20485;-77
2022/05/07 06:11:54;;;;;;;19.38;14.73;;;;;;;11.17;100.00;100829.94;5034673;28;20112;-78
2022/05/07 06:14:20;;;;;;;24.70;13.57;;;;;;;11.20;100.00;100828.97;5034628;28;20018;-78
2022/05/07 06:16:45;;;;;;;19.70;14.25;;;;;;;11.28;100.00;100824.34;5033917;28;20029;-78
2022/05/07 06:19:10;;;;;;;20.33;13.70;;;;;;;11.37;100.00;100823.22;5032429;28;20045;-78
2022/05/07 06:21:36;;;;;;;19.55;14.77;;;;;;;11.48;100.00;100819.41;5034035;28;20029;-78
2022/05/07 06:27:28;;;;;;;21.52;14.38;;;;;;;11.54;100.00;100821.94;5034451;28;20025;-78
2022/05/07 06:29:30;;;;;;;;;;;;;;;11.71;100.00;100833.97;5035037;28;20029;-78
2022/05/07 06:31:56;;;;;;;21.43;14.63;;;;;;;11.80;100.00;100827.50;5034463;28;19909;-78
2022/05/07 06:34:23;;;;;;;25.05;14.50;;;;;;;11.86;100.00;100832.69;5035149;28;20262;-79
2022/05/07 06:36:49;;;;;;;20.85;14.05;;;;;;;11.91;100.00;100829.88;5034988;28;20021;-79
2022/05/07 06:39:16;;;;;;;22.42;15.05;;;;;;;11.99;100.00;100835.91;5033431;28;20495;-78
2022/05/07 06:41:41;;;;;;;25.35;15.73;;;;;;;12.03;100.00;100834.03;5033460;28;20029;-78
2022/05/07 06:44:07;;;;;;;19.00;14.10;;;;;;;12.14;100.00;100842.66;5034103;28;20117;-79
2022/05/07 06:46:32;;;;;;;18.65;14.50;;;;;;;12.23;100.00;100837.97;5035799;28;20104;-79
2022/05/07 06:48:57;;;;;;;19.85;15.63;;;;;;;12.25;100.00;100844.16;5035806;28;20030;-79
2022/05/07 06:51:24;;;;;;;20.60;14.95;;;;;;;12.24;100.00;100837.06;5034879;28;20475;-78
2022/05/07 06:53:49;;;;;;;22.77;15.57;;;;;;;12.23;100.00;100838.88;5034502;28;20072;-78
2022/05/07 06:56:15;;;;;;;23.00;14.93;;;;;;;12.34;100.00;100841.25;5032820;28;20025;-78
2022/05/07 06:58:41;;;;;;;20.77;16.02;;;;;;;12.44;100.00;100833.81;5033820;28;20056;-78
2022/05/07 07:01:09;;;;;;;22.75;16.27;;;;;;;12.54;100.00;100839.78;5068641;22;20521;-87
2022/05/07 07:03:37;;;;;;;25.67;15.98;;;;;;;12.58;100.00;100843.22;5033125;28;20053;-86
2022/05/07 07:06:03;;;;;;;20.55;16.27;;;;;;;12.50;100.00;100840.78;5050082;28;20112;-84
2022/05/07 07:08:31;;;;;;;21.83;15.35;;;;;;;12.54;100.00;100838.91;5034594;28;20110;-87
2022/05/07 07:10:57;;;;;;;22.05;15.93;;;;;;;12.52;100.00;100838.97;5033765;28;20589;-88
2022/05/07 07:13:22;;;;;;;22.15;16.48;;;;;;;12.58;100.00;100845.91;5035325;28;20056;-85
2022/05/07 07:15:48;;;;;;;22.30;16.45;;;;;;;12.66;100.00;100837.66;5034505;28;20025;-86
2022/05/07 07:18:14;;;;;;;21.52;16.77;;;;;;;12.69;100.00;100842.91;5033167;28;20104;-85
2022/05/07 07:20:41;;;;;;;22.67;16.70;;;;;;;12.76;100.00;100839.13;5033608;28;20084;-87
2022/05/07 07:23:07;;;;;;;23.60;16.90;;;;;;;12.93;100.00;100841.31;5032372;28;20025;-86
2022/05/07 07:25:32;;;;;;;23.85;17.77;;;;;;;13.03;100.00;100841.91;5033698;28;20021;-86
2022/05/07 07:27:58;;;;;;;20.48;16.17;;;;;;;13.14;100.00;100846.03;5037146;28;20376;-86
2022/05/07 07:30:26;;;;;;;23.92;17.00;;;;;;;13.24;100.00;100846.63;5035727;28;20028;-87
2022/05/07 07:32:52;;;;;;;20.58;15.93;;;;;;;13.34;100.00;100849.88;5036716;28;20021;-88
2022/05/07 07:35:17;;;;;;;24.05;16.85;;;;;;;13.43;100.00;100846.88;5038549;28;20029;-88
2022/05/07 07:37:45;;;;;;;21.92;15.90;;;;;;;13.54;100.00;100846.53;5037332;28;20104;-90
2022/05/07 07:40:12;;;;;;;22.70;16.40;;;;;;;13.72;100.00;100855.78;5034784;28;20510;-86
2022/05/07 07:42:40;;;;;;;23.58;17.23;;;;;;;13.93;100.00;100837.19;5036667;28;20461;-86
2022/05/07 07:48:05;;;;;;;25.63;16.27;;;;;;;14.35;100.00;100853.63;5037231;28;20028;-86
2022/05/07 07:50:34;;;;;;;20.95;14.65;;;;;;;14.49;100.00;100834.28;5037531;28;20023;-86
2022/05/07 07:53:01;;;;;;;22.75;13.75;;;;;;;14.93;100.00;100843.41;5036456;28;20029;-86
2022/05/07 07:55:27;;;;;;;21.45;15.43;;;;;;;15.14;100.00;100850.66;5035590;28;20080;-86
2022/05/07 07:58:00;;;;;;;21.85;14.43;;;;;;;15.23;100.00;100847.59;5038009;28;20033;-85
2022/05/07 08:00:26;;;;;;;20.58;14.43;;;;;;;15.53;100.00;100852.66;5035563;28;20167;-86
2022/05/07 08:02:54;;;;;;;21.17;14.65;;;;;;;15.52;100.00;100858.97;5035654;28;20032;-85
2022/05/07 08:05:21;;;;;;;19.73;12.88;;;;;;;15.57;100.00;100852.50;5036221;28;20029;-86
2022/05/07 08:13:14;;;;;;;18.63;13.50;;;;;;;15.73;100.00;100859.00;5036451;28;19959;-84
2022/05/07 08:15:41;;;;;;;21.77;13.90;;;;;;;15.64;99.36;100854.88;5034466;28;20029;-86
2022/05/07 08:18:06;;;;;;;20.88;13.73;;;;;;;15.71;98.73;100860.91;5034813;28;20059;-85
2022/05/07 08:20:32;;;;;;;19.23;13.73;;;;;;;15.83;100.00;100859.47;5034392;28;20057;-86
2022/05/07 08:22:57;;;;;;;21.23;12.93;;;;;;;16.01;100.00;100861.44;5034680;28;20022;-86
2022/05/07 08:25:23;;;;;;;20.27;12.40;;;;;;;16.00;97.56;100865.09;5035607;28;20538;-85
2022/05/07 08:27:48;;;;;;;19.27;12.18;;;;;;;16.16;93.68;100858.09;5035039;28;20060;-86
2022/05/07 08:30:13;;;;;;;23.98;14.38;;;;;;;16.24;92.81;100864.94;5034541;28;20075;-86
2022/05/07 08:32:38;;;;;;;19.88;12.70;;;;;;;16.32;94.78;100854.72;5036576;28;20025;-86
2022/05/07 08:35:04;;;;;;;18.35;12.68;;;;;;;16.41;93.42;100866.91;5034483;28;20060;-86
2022/05/07 08:37:29;;;;;;;19.25;11.75;;;;;;;16.64;88.55;100865.84;5034572;28;20032;-86
2022/05/07 08:40:01;;;;;;;17.50;11.23;;;;;;;16.52;85.39;100867.28;5034292;28;20021;-86
2022/05/07 08:42:30;;;;;;;14.90;10.32;;;;;;;16.75;86.27;100864.47;5035980;28;20025;-86
2022/05/07 08:44:56;;;;;;;18.25;11.88;;;;;;;16.93;92.82;100860.00;5033841;28;20499;-85
2022/05/07 08:47:23;;;;;;;17.77;11.93;;;;;;;16.92;90.64;100860.09;5033650;28;20034;-89
2022/05/07 08:49:50;;;;;;;18.27;11.23;;;;;;;17.05;86.49;100869.34;5033664;28;20052;-88
2022/05/07 08:52:17;;;;;;;18.33;11.30;;;;;;;17.12;87.05;100863.63;5035269;28;20025;-87
2022/05/07 08:54:44;;;;;;;16.90;9.52;;;;;;;17.28;85.59;100869.19;5033756;28;20022;-88
2022/05/07 08:57:09;;;;;;;19.17;11.18;;;;;;;17.25;81.13;100866.66;5035575;28;20475;-88
2022/05/07 08:59:38;;;;;;;17.20;11.07;;;;;;;17.36;80.07;100871.53;5034924;28;20043;-86
2022/05/07 09:02:04;;;;;;;16.83;10.90;;;;;;;17.44;81.20;100874.72;5033632;28;20021;-86
2022/05/07 09:04:29;;;;;;;16.52;10.45;;;;;;;17.48;78.09;100870.91;5035013;28;20024;-87
2022/05/07 09:07:09;;;;;;;18.00;11.25;;;;;;;17.59;78.06;100859.56;5034885;28;20371;-87
2022/05/07 09:09:34;;;;;;;17.95;11.95;;;;;;;17.62;78.30;100861.25;5034220;28;20458;-87
2022/05/07 09:11:59;;;;;;;19.25;11.10;;;;;;;17.83;78.11;100864.66;5033484;28;20032;-89
2022/05/07 09:14:29;;;;;;;18.75;12.05;;;;;;;17.60;77.54;100860.44;5033283;28;20116;-88
2022/05/07 09:16:58;;;;;;;17.95;12.13;;;;;;;17.83;83.42;100863.81;5034653;28;20025;-90
2022/05/07 09:19:30;;;;;;;15.88;11.27;;;;;;;18.04;80.75;100866.34;5034370;28;20058;-90
2022/05/07 09:22:07;;;;;;;22.95;12.38;;;;;;;18.33;78.10;100861.22;5033447;28;20025;-85
2022/05/07 09:24:32;;;;;;;19.75;11.93;;;;;;;18.55;76.60;100860.06;5032888;28;20127;-85
2022/05/07 09:26:58;;;;;;;21.25;11.57;;;;;;;18.81;79.74;100860.44;5033037;28;20113;-87
2022/05/07 09:29:27;;;;;;;19.35;11.93;;;;;;;18.86;72.71;100863.75;5033583;28;20536;-89
2022/05/07 09:31:53;;;;;;;21.10;12.05;;;;;;;18.92;73.68;100861.66;5033129;28;20033;-87
2022/05/07 09:37:20;;;;;;;18.80;11.60;;;;;;;18.84;71.92;100862.97;5034476;28;20386;-90
2022/05/07 09:39:50;;;;;;;16.25;10.98;;;;;;;18.99;70.08;100863.09;5033170;28;20028;-88
2022/05/07 09:42:19;;;;;;;15.77;10.70;;;;;;;19.03;69.83;100864.66;5034073;28;20018;-89
2022/05/07 09:44:44;;;;;;;17.20;10.70;;;;;;;19.33;68.88;100864.84;5032621;28;20029;-90
2022/05/07 09:47:12;;;;;;;16.98;11.02;;;;;;;19.22;67.16;100858.22;5032590;28;20394;-88
2022/05/07 09:50:19;;;;;;;22.25;11.02;;;;;;;19.36;66.77;100861.94;5032372;28;20020;-88
2022/05/07 09:52:28;;;;;;;14.48;10.70;;;;;;;19.01;70.15;100855.75;5033539;28;20033;-87
2022/05/07 09:57:38;;;;;;;15.77;9.43;;;;;;;19.08;66.03;100849.03;5034504;28;20032;-88
2022/05/07 10:00:10;;;;;;;16.30;9.55;;;;;;;19.41;66.95;100857.13;5032172;28;20402;-84
2022/05/07 10:02:59;;;;;;;16.13;9.40;;;;;;;19.83;71.38;100851.97;5032941;28;20552;-87
2022/05/07 10:05:44;;;;;;;15.48;11.13;;;;;;;19.74;65.45;100857.94;5032236;28;20388;-89
2022/05/07 10:08:30;;;;;;;14.25;10.45;;;;;;;20.17;67.42;100862.63;5033274;28;20484;-83
2022/05/07 10:10:57;;;;;;;16.63;9.77;;;;;;;20.38;62.81;100862.25;5032500;28;20498;-86
2022/05/07 10:13:23;;;;;;;12.88;9.45;;;;;;;19.85;61.95;100857.28;5032327;28;20033;-85
2022/05/07 10:15:58;;;;;;;13.02;10.00;;;;;;;19.88;63.28;100860.69;5033825;28;20120;-86
2022/05/07 10:18:33;;;;;;;13.90;9.68;;;;;;;20.29;64.80;100855.53;5034192;28;20104;-86
2022/05/07 10:20:58;;;;;;;14.75;8.68;;;;;;;20.04;60.89;100859.75;5033972;28;20017;-89
2022/05/07 10:23:32;;;;;;;11.82;8.02;;;;;;;20.06;60.33;100862.34;5032156;28;20029;-88
2022/05/07 10:25:58;;;;;;;12.68;7.90;;;;;;;20.50;61.40;100857.00;5033741;28;20352;-88
2022/05/07 10:28:38;;;;;;;13.95;7.75;;;;;;;20.49;58.44;100864.25;5032638;28;20075;-88
2022/05/07 10:31:03;;;;;;;15.52;8.27;;;;;;;20.07;62.66;100861.41;5034136;28;20049;-86
2022/05/07 10:33:38;;;;;;;12.77;7.68;;;;;;;20.37;59.26;100855.06;5033222;28;20112;-85
2022/05/07 10:36:08;;;;;;;12.93;7.90;;;;;;;20.62;59.87;100858.06;5032169;28;20107;-84
2022/05/07 10:38:38;;;;;;;13.30;8.27;;;;;;;20.58;59.50;100857.41;5032622;28;20047;-84
2022/05/07 10:41:07;;;;;;;13.52;7.57;;;;;;;20.79;60.01;100857.00;5032126;28;20018;-85
2022/05/07 10:43:37;;;;;;;11.77;7.22;;;;;;;20.48;57.68;100856.22;5033503;28;20033;-85
2022/05/07 10:46:10;;;;;;;11.25;7.75;;;;;;;20.40;58.86;100849.47;5032925;28;20435;-85
2022/05/07 10:48:48;;;;;;;14.57;7.50;;;;;;;20.23;62.10;100841.50;5032129;28;20112;-85
2022/05/07 10:51:25;;;;;;;13.40;7.88;;;;;;;20.94;60.15;100838.84;5032297;28;20037;-85
2022/05/07 10:53:51;;;;;;;13.15;8.05;;;;;;;21.34;57.80;100841.75;5034291;28;20025;-85
2022/05/07 10:56:19;;;;;;;13.65;7.93;;;;;;;21.29;56.62;100848.34;5036181;28;20021;-85
2022/05/07 10:58:52;;;;;;;10.73;8.07;;;;;;;21.55;56.54;100840.28;5037794;28;20503;-85
2022/05/07 11:01:19;;;;;;;11.98;8.15;;;;;;;21.21;55.22;100842.56;5035459;28;20033;-86
2022/05/07 11:03:46;;;;;;;11.82;7.32;;;;;;;21.19;53.41;100841.78;5040487;28;20385;-85
2022/05/07 11:06:11;;;;;;;11.05;7.55;;;;;;;21.07;56.96;100835.34;5022155;28;20309;-86
2022/05/07 11:08:49;;;;;;;14.00;8.32;;;;;;;21.27;54.77;100839.44;5037519;28;20632;-86
2022/05/07 11:11:15;;;;;;;12.18;8.23;;;;;;;21.80;54.43;100836.88;5036689;28;20022;-86
2022/05/07 11:13:52;;;;;;;12.57;7.45;;;;;;;21.88;55.56;100821.78;5036798;28;20529;-85
2022/05/07 11:16:18;;;;;;;13.90;8.00;;;;;;;21.66;52.30;100825.09;5036210;28;20033;-84
2022/05/07 11:18:52;;;;;;;13.45;8.02;;;;;;;21.46;56.10;100824.63;5036925;28;20021;-87
2022/05/07 11:21:18;;;;;;;;;;;;;;;21.18;55.47;100826.50;5037382;28;20045;-87
2022/05/07 11:24:07;;;;;;;10.95;6.35;;;;;;;22.04;59.98;100822.56;5035567;28;19909;-88
2022/05/07 11:26:35;;;;;;;13.13;8.55;;;;;;;21.79;54.49;100830.56;5019602;28;20029;-87
2022/05/07 11:29:00;;;;;;;11.40;8.05;;;;;;;21.50;55.40;100820.72;5037571;28;20028;-89
2022/05/07 11:31:32;;;;;;;13.65;9.20;;;;;;;20.92;55.79;100823.63;5036369;28;20025;-87
2022/05/07 11:34:03;;;;;;;17.25;8.80;;;;;;;21.34;55.68;100820.03;5036382;28;20036;-90
2022/05/07 11:36:29;;;;;;;13.02;7.32;;;;;;;21.27;53.45;100820.44;5036637;28;20026;-87
2022/05/07 11:38:59;;;;;;;11.27;6.93;;;;;;;21.44;53.70;100807.56;5035678;28;20022;-86